Time;durP1;ratioP1;P1;durP2;ratioP2;P2;SDS_P1;SDS_P2;PMS_P1;PMS_P2;Temp;Humidity;BMP_temperature;BMP_pressure;BME280_temperature;BME280_humidity;BME280_pressure;Samples;Min_cycle;Max_cycle;Signal;HPM_P1;HPM_P2
2022/08/31 00:05:22;;;;;;;3.05;1.45;;;14.90;99.90;;;;;;5043558;28;20091;-54
2022/08/31 00:07:47;;;;;;;4.57;1.30;;;14.90;99.90;;;;;;5043865;28;20049;-52
2022/08/31 00:10:14;;;;;;;2.63;1.13;;;14.90;99.90;;;;;;5025975;28;20055;-50
2022/08/31 00:12:45;;;;;;;4.72;1.30;;;14.90;99.90;;;;;;5042544;28;20443;-50
2022/08/31 00:15:14;;;;;;;2.38;1.30;;;14.90;99.90;;;;;;5024425;28;20055;-51
2022/08/31 00:17:41;;;;;;;4.55;2.03;;;14.80;99.90;;;;;;5041816;28;20060;-49
2022/08/31 00:20:07;;;;;;;2.05;1.20;;;14.90;99.90;;;;;;5042406;28;20053;-50
2022/08/31 00:22:33;;;;;;;1.33;1.10;;;14.90;99.90;;;;;;5040617;28;20103;-50
2022/08/31 00:24:59;;;;;;;2.63;1.30;;;14.90;99.90;;;;;;5041477;28;20463;-52
2022/08/31 00:27:25;;;;;;;2.17;1.10;;;14.90;99.90;;;;;;5043267;28;20067;-51
2022/08/31 00:29:50;;;;;;;2.67;1.40;;;14.90;99.90;;;;;;5043093;28;20036;-50
2022/08/31 00:32:16;;;;;;;2.60;1.42;;;14.90;99.90;;;;;;5025092;28;20075;-50
2022/08/31 00:34:42;;;;;;;1.83;1.13;;;14.90;99.90;;;;;;5043178;28;20135;-49
2022/08/31 00:37:07;;;;;;;1.80;1.30;;;14.90;99.90;;;;;;5042180;28;20138;-48
2022/08/31 00:39:33;;;;;;;2.20;1.30;;;15.00;99.90;;;;;;5042373;28;20053;-52
2022/08/31 00:41:59;;;;;;;4.10;1.10;;;15.00;99.90;;;;;;5042840;28;20052;-50
2022/08/31 00:44:25;;;;;;;2.78;1.20;;;15.00;99.90;;;;;;5041072;28;20052;-50
2022/08/31 00:46:50;;;;;;;2.10;1.50;;;14.90;99.90;;;;;;5042128;28;20458;-54
2022/08/31 00:49:25;;;;;;;3.97;1.42;;;14.90;99.90;;;;;;5042527;28;20053;-51
2022/08/31 00:51:54;;;;;;;4.43;1.20;;;14.90;99.90;;;;;;5042308;28;20051;-49
2022/08/31 00:54:25;;;;;;;2.53;1.10;;;14.90;99.90;;;;;;5041468;28;20080;-52
2022/08/31 00:56:52;;;;;;;2.55;1.05;;;14.80;99.90;;;;;;5040892;28;20045;-50
2022/08/31 00:59:19;;;;;;;1.80;1.08;;;14.80;99.90;;;;;;5023089;28;20167;-49
2022/08/31 01:01:45;;;;;;;2.47;1.30;;;14.80;99.90;;;;;;5042728;28;20358;-51
2022/08/31 01:04:11;;;;;;;3.10;1.08;;;14.70;99.90;;;;;;5042254;28;20052;-49
2022/08/31 01:06:38;;;;;;;2.78;1.30;;;14.70;99.90;;;;;;5042349;28;20048;-50
2022/08/31 01:09:06;;;;;;;3.60;1.27;;;14.60;99.90;;;;;;5042553;28;20049;-49
2022/08/31 01:11:32;;;;;;;3.30;1.40;;;14.60;99.90;;;;;;5045529;28;20579;-49
2022/08/31 01:13:58;;;;;;;2.53;1.23;;;14.60;99.90;;;;;;5022134;28;20092;-52
2022/08/31 01:16:31;;;;;;;3.35;1.67;;;14.50;99.90;;;;;;5041083;28;20064;-53
2022/08/31 01:19:01;;;;;;;2.78;1.33;;;14.50;99.90;;;;;;5041937;28;20072;-49
2022/08/31 01:21:43;;;;;;;1.90;1.27;;;14.50;99.90;;;;;;5041560;28;20061;-49
2022/08/31 01:24:10;;;;;;;1.90;1.20;;;14.50;99.90;;;;;;5041284;28;20095;-50
2022/08/31 01:26:37;;;;;;;2.05;1.30;;;14.50;99.90;;;;;;5041665;28;20063;-52
2022/08/31 01:29:05;;;;;;;1.98;1.30;;;14.50;99.90;;;;;;5041499;28;20095;-49
2022/08/31 01:31:35;;;;;;;2.83;1.08;;;14.50;99.90;;;;;;5041020;28;20511;-50
2022/08/31 01:34:01;;;;;;;3.35;1.40;;;14.50;99.90;;;;;;5040068;28;20067;-50
2022/08/31 01:36:27;;;;;;;3.25;1.30;;;14.50;99.90;;;;;;5006595;28;20053;-48
2022/08/31 01:38:53;;;;;;;4.78;1.48;;;14.40;99.90;;;;;;5040166;28;20049;-50
2022/08/31 01:41:20;;;;;;;2.42;1.20;;;14.40;99.90;;;;;;5022059;28;20059;-52
2022/08/31 01:43:46;;;;;;;2.28;1.25;;;14.40;99.90;;;;;;5039169;28;20059;-48
2022/08/31 01:46:12;;;;;;;2.72;1.20;;;14.40;99.90;;;;;;5040930;28;20052;-48
2022/08/31 01:48:41;;;;;;;2.33;1.25;;;14.30;99.90;;;;;;5040848;28;20105;-50
2022/08/31 01:51:08;;;;;;;2.13;1.30;;;14.40;99.90;;;;;;5040343;28;20095;-48
2022/08/31 01:53:34;;;;;;;2.13;1.35;;;14.30;99.90;;;;;;5039426;28;20470;-48
2022/08/31 01:56:00;;;;;;;2.63;1.23;;;14.40;99.90;;;;;;5040749;28;20040;-51
2022/08/31 01:58:26;;;;;;;3.05;1.23;;;14.30;99.90;;;;;;5039500;28;20099;-48
2022/08/31 02:00:52;;;;;;;2.13;1.10;;;14.30;99.90;;;;;;5040940;28;20501;-50
2022/08/31 02:03:18;;;;;;;3.10;1.17;;;14.30;99.90;;;;;;5040867;28;20044;-50
2022/08/31 02:05:43;;;;;;;3.90;1.25;;;14.20;99.90;;;;;;5041691;28;20047;-50
2022/08/31 02:08:10;;;;;;;2.35;1.23;;;14.20;99.90;;;;;;5023319;28;20053;-51
2022/08/31 02:10:36;;;;;;;1.42;1.00;;;14.10;99.90;;;;;;5039324;28;20381;-51
2022/08/31 02:13:04;;;;;;;2.22;1.15;;;14.10;99.90;;;;;;5037564;28;20049;-50
2022/08/31 02:15:30;;;;;;;1.88;1.25;;;14.00;99.90;;;;;;5032536;28;20057;-50
2022/08/31 02:17:56;;;;;;;2.88;1.23;;;14.00;99.90;;;;;;5041564;28;20100;-51
2022/08/31 02:20:23;;;;;;;4.60;1.38;;;14.00;99.90;;;;;;5041658;28;20890;-50
2022/08/31 02:22:48;;;;;;;1.80;1.10;;;13.90;99.90;;;;;;5039932;28;20053;-50
2022/08/31 02:25:16;;;;;;;3.05;1.45;;;13.90;99.90;;;;;;5041604;28;20071;-50
2022/08/31 02:27:42;;;;;;;2.20;1.08;;;13.80;99.90;;;;;;5044143;28;20049;-51
2022/08/31 02:30:12;;;;;;;4.05;1.30;;;13.70;99.90;;;;;;5041126;28;20457;-50
2022/08/31 02:32:38;;;;;;;1.40;1.00;;;13.70;99.90;;;;;;5040447;28;20099;-49
2022/08/31 02:35:04;;;;;;;1.60;1.30;;;13.60;99.90;;;;;;5042069;28;20412;-50
2022/08/31 02:37:30;;;;;;;3.92;1.30;;;13.50;99.90;;;;;;5041864;28;20056;-48
2022/08/31 02:39:56;;;;;;;2.88;1.40;;;13.50;99.90;;;;;;5041233;28;20053;-48
2022/08/31 02:42:21;;;;;;;1.65;1.13;;;13.30;99.90;;;;;;5039879;28;20474;-48
2022/08/31 02:44:47;;;;;;;2.67;1.30;;;13.30;99.90;;;;;;5040582;28;20527;-49
2022/08/31 02:47:16;;;;;;;2.17;1.38;;;13.10;99.90;;;;;;5040409;28;20120;-48
2022/08/31 02:49:42;;;;;;;3.58;1.30;;;13.10;99.90;;;;;;5039901;28;20680;-50
2022/08/31 02:52:13;;;;;;;3.15;1.30;;;13.00;99.90;;;;;;5039505;28;20041;-48
2022/08/31 02:54:38;;;;;;;2.33;1.63;;;12.90;99.90;;;;;;5040973;28;20076;-48
2022/08/31 02:57:05;;;;;;;2.78;1.20;;;12.80;99.90;;;;;;5040895;28;20551;-51
2022/08/31 02:59:30;;;;;;;3.17;1.40;;;12.80;99.90;;;;;;5040621;28;20630;-48
2022/08/31 03:01:56;;;;;;;2.40;1.17;;;12.70;99.90;;;;;;5039511;28;20254;-49
2022/08/31 03:04:22;;;;;;;2.42;1.35;;;12.70;99.90;;;;;;5040248;28;20575;-51
2022/08/31 03:06:53;;;;;;;1.95;1.38;;;12.60;99.90;;;;;;5040441;28;20503;-49
2022/08/31 03:09:19;;;;;;;2.08;1.38;;;12.60;99.90;;;;;;5040556;28;20404;-48
2022/08/31 03:11:44;;;;;;;3.10;1.40;;;12.60;99.90;;;;;;5040889;28;20087;-49
2022/08/31 03:14:10;;;;;;;3.28;1.50;;;12.60;99.90;;;;;;5040669;28;20488;-50
2022/08/31 03:16:39;;;;;;;2.38;1.35;;;12.50;99.90;;;;;;5041052;28;20067;-49
2022/08/31 03:19:05;;;;;;;2.10;1.27;;;12.50;99.90;;;;;;5041910;28;20041;-48
2022/08/31 03:21:31;;;;;;;1.92;1.38;;;12.50;99.90;;;;;;5040604;28;20064;-52
2022/08/31 03:23:57;;;;;;;2.95;1.40;;;12.50;99.90;;;;;;5043655;28;20087;-49
2022/08/31 03:26:23;;;;;;;1.67;1.20;;;12.40;99.90;;;;;;5042977;28;20037;-49
2022/08/31 03:28:48;;;;;;;3.05;1.45;;;12.40;99.90;;;;;;5043666;28;20045;-50
2022/08/31 03:31:14;;;;;;;4.40;1.45;;;12.40;99.90;;;;;;5044141;28;20132;-48
2022/08/31 03:33:40;;;;;;;4.85;1.75;;;12.30;99.90;;;;;;5043625;28;20416;-52
2022/08/31 03:36:06;;;;;;;2.60;1.40;;;12.30;99.90;;;;;;5044551;28;20301;-51
2022/08/31 03:38:32;;;;;;;1.35;1.10;;;12.20;99.90;;;;;;5044532;28;20455;-49
2022/08/31 03:40:58;;;;;;;3.00;1.48;;;12.20;99.90;;;;;;5044716;28;20048;-49
2022/08/31 03:43:24;;;;;;;2.15;1.48;;;12.10;99.90;;;;;;5046089;28;20500;-52
2022/08/31 03:45:50;;;;;;;2.20;1.65;;;12.10;99.90;;;;;;5041559;28;20114;-51
2022/08/31 03:48:15;;;;;;;2.47;1.48;;;12.10;99.90;;;;;;5043743;28;20076;-53
2022/08/31 03:50:42;;;;;;;3.75;1.45;;;12.00;99.90;;;;;;5044045;28;20620;-49
2022/08/31 03:53:08;;;;;;;1.73;1.40;;;12.00;99.90;;;;;;5043048;28;20131;-48
2022/08/31 03:55:37;;;;;;;3.30;1.60;;;11.90;99.90;;;;;;5043846;28;20087;-49
2022/08/31 03:58:03;;;;;;;2.70;1.67;;;11.80;99.90;;;;;;5044120;28;20049;-48
2022/08/31 04:00:30;;;;;;;1.52;1.38;;;11.80;99.90;;;;;;5044025;28;20099;-48
2022/08/31 04:02:58;;;;;;;3.58;1.70;;;11.70;99.90;;;;;;5042910;28;20609;-48
2022/08/31 04:05:28;;;;;;;2.97;1.20;;;11.70;99.90;;;;;;5042573;28;20052;-49
2022/08/31 04:07:54;;;;;;;2.97;1.40;;;11.60;99.90;;;;;;5042591;28;20080;-48
2022/08/31 04:10:21;;;;;;;1.83;1.38;;;11.60;99.90;;;;;;5043189;28;20546;-49
2022/08/31 04:12:48;;;;;;;3.38;1.63;;;11.60;99.90;;;;;;5042567;28;20415;-50
2022/08/31 04:15:13;;;;;;;4.15;1.60;;;11.50;99.90;;;;;;5043051;28;20511;-48
2022/08/31 04:17:39;;;;;;;1.40;1.20;;;11.50;99.90;;;;;;5043631;28;20044;-50
2022/08/31 04:20:05;;;;;;;3.30;1.60;;;11.50;99.90;;;;;;5043860;28;20128;-50
2022/08/31 04:22:31;;;;;;;3.22;1.55;;;11.40;99.90;;;;;;5041875;28;20061;-48
2022/08/31 04:24:57;;;;;;;2.30;1.30;;;11.40;99.90;;;;;;5042123;28;20098;-49
2022/08/31 04:27:23;;;;;;;2.08;1.30;;;11.40;99.90;;;;;;5042613;28;20403;-49
2022/08/31 04:29:49;;;;;;;7.43;1.70;;;11.50;99.90;;;;;;5042549;28;20503;-49
2022/08/31 04:32:19;;;;;;;5.28;1.35;;;11.50;99.90;;;;;;5042299;28;20049;-48
2022/08/31 04:34:45;;;;;;;2.13;1.40;;;11.40;99.90;;;;;;5033091;28;20055;-49
2022/08/31 04:37:13;;;;;;;6.03;1.60;;;11.40;99.90;;;;;;5042635;28;20053;-48
2022/08/31 04:39:43;;;;;;;3.10;1.67;;;11.50;99.90;;;;;;5043239;28;20052;-49
2022/08/31 04:42:10;;;;;;;4.60;2.75;;;11.50;99.90;;;;;;5040623;28;20045;-51
2022/08/31 04:44:36;;;;;;;2.97;1.50;;;11.50;99.90;;;;;;5041793;28;20293;-48
2022/08/31 04:47:02;;;;;;;2.20;1.63;;;11.50;99.90;;;;;;5042923;28;20110;-50
2022/08/31 04:49:28;;;;;;;3.65;1.38;;;11.50;99.90;;;;;;5043203;28;20080;-48
2022/08/31 04:51:54;;;;;;;5.25;1.73;;;11.40;99.90;;;;;;5042449;28;20457;-47
2022/08/31 04:54:19;;;;;;;2.80;1.60;;;11.40;99.90;;;;;;5042943;28;20049;-49
2022/08/31 04:56:45;;;;;;;4.40;1.95;;;11.40;99.90;;;;;;5027387;28;20639;-51
2022/08/31 04:59:15;;;;;;;5.47;1.63;;;11.40;99.90;;;;;;5044867;28;20048;-52
2022/08/31 05:01:45;;;;;;;2.00;1.55;;;11.40;99.90;;;;;;5042600;28;20089;-52
2022/08/31 05:04:13;;;;;;;4.88;1.88;;;11.40;99.90;;;;;;5041194;28;20132;-48
2022/08/31 05:06:42;;;;;;;3.45;1.50;;;11.40;99.90;;;;;;5042812;28;20122;-48
2022/08/31 05:09:15;;;;;;;3.55;1.42;;;11.40;99.90;;;;;;5042702;28;20045;-54
2022/08/31 05:11:41;;;;;;;3.65;1.73;;;11.40;99.90;;;;;;5041667;28;20040;-48
2022/08/31 05:14:08;;;;;;;4.00;1.42;;;11.40;99.90;;;;;;5042157;28;20056;-49
2022/08/31 05:16:37;;;;;;;6.55;1.60;;;11.50;99.90;;;;;;5041914;28;20175;-48
2022/08/31 05:19:04;;;;;;;2.30;1.83;;;11.50;99.90;;;;;;5041503;28;20049;-49
2022/08/31 05:21:33;;;;;;;1.52;1.40;;;11.50;99.90;;;;;;5019090;28;20049;-48
2022/08/31 05:24:01;;;;;;;3.65;1.90;;;11.60;99.90;;;;;;5035021;28;20045;-48
2022/08/31 05:26:29;;;;;;;3.35;1.65;;;11.70;99.90;;;;;;5041292;28;20064;-48
2022/08/31 05:28:56;;;;;;;3.88;1.48;;;12.00;99.90;;;;;;5042167;28;20048;-48
2022/08/31 05:31:23;;;;;;;4.82;1.80;;;12.50;99.90;;;;;;5041926;28;20047;-52
2022/08/31 05:33:49;;;;;;;2.55;1.48;;;13.30;99.90;;;;;;5041930;28;20503;-50
2022/08/31 05:36:16;;;;;;;3.05;1.70;;;14.70;99.90;;;;;;5041463;28;20094;-49
2022/08/31 05:38:42;;;;;;;2.03;1.42;;;15.90;99.90;;;;;;5040690;28;20490;-50
2022/08/31 05:41:09;;;;;;;1.70;1.40;;;17.20;99.90;;;;;;5040552;28;20048;-50
2022/08/31 05:43:37;;;;;;;1.55;1.20;;;18.40;99.90;;;;;;5040899;28;20052;-48
2022/08/31 05:46:09;;;;;;;4.80;1.40;;;19.40;99.90;;;;;;5040992;28;20055;-50
2022/08/31 05:48:36;;;;;;;4.80;1.33;;;20.40;99.90;;;;;;5037507;28;20037;-48
2022/08/31 05:51:07;;;;;;;2.70;1.55;;;21.30;98.20;;;;;;5041806;28;20051;-48
2022/08/31 05:53:34;;;;;;;4.28;1.10;;;22.10;97.10;;;;;;5040402;28;20059;-48
2022/08/31 05:56:08;;;;;;;3.25;1.63;;;22.40;95.40;;;;;;5020897;28;20586;-48
2022/08/31 05:58:35;;;;;;;2.17;1.30;;;22.90;93.60;;;;;;5038800;28;20106;-49
2022/08/31 06:01:01;;;;;;;1.77;1.20;;;23.40;94.50;;;;;;5041221;28;20055;-51
2022/08/31 06:03:28;;;;;;;1.58;0.93;;;23.90;93.60;;;;;;5041083;28;20053;-49
2022/08/31 06:05:54;;;;;;;3.88;1.27;;;24.40;92.90;;;;;;5041266;28;20099;-49
2022/08/31 06:08:20;;;;;;;2.03;1.15;;;24.30;92.50;;;;;;5041192;28;20120;-48
2022/08/31 06:10:47;;;;;;;2.88;1.40;;;24.30;92.30;;;;;;5043657;28;20549;-48
2022/08/31 06:13:15;;;;;;;4.35;1.70;;;25.10;91.70;;;;;;5043270;28;20052;-52
2022/08/31 06:15:41;;;;;;;2.88;1.10;;;25.70;90.50;;;;;;5042358;28;20040;-50
2022/08/31 06:18:07;;;;;;;1.75;1.40;;;26.30;91.10;;;;;;5040174;28;20045;-49
2022/08/31 06:20:37;;;;;;;1.85;1.27;;;26.70;90.30;;;;;;5040936;28;20110;-50
2022/08/31 06:23:05;;;;;;;3.70;1.30;;;26.40;87.20;;;;;;5040199;28;20053;-49
2022/08/31 06:25:32;;;;;;;2.72;1.15;;;26.80;89.10;;;;;;5041267;28;20516;-48
2022/08/31 06:27:58;;;;;;;1.98;1.45;;;26.60;87.50;;;;;;5041098;28;20144;-49
2022/08/31 06:30:26;;;;;;;4.18;1.40;;;26.60;88.00;;;;;;5040910;28;20136;-51
2022/08/31 06:32:54;;;;;;;1.40;1.00;;;26.80;88.60;;;;;;5039830;28;20041;-49
2022/08/31 06:35:20;;;;;;;2.80;1.40;;;26.90;88.30;;;;;;5022226;28;20466;-50
2022/08/31 06:37:46;;;;;;;2.15;1.30;;;27.00;87.60;;;;;;5040449;28;20036;-52
2022/08/31 06:40:12;;;;;;;1.77;1.30;;;26.90;86.40;;;;;;5040164;28;20044;-51
2022/08/31 06:42:38;;;;;;;2.88;1.30;;;26.90;87.00;;;;;;5020822;28;20055;-53
2022/08/31 06:45:05;;;;;;;1.70;1.10;;;26.70;86.90;;;;;;5041147;28;20045;-49
2022/08/31 06:47:30;;;;;;;2.35;1.30;;;27.30;86.20;;;;;;5037112;28;20558;-52
2022/08/31 06:49:56;;;;;;;2.58;1.30;;;27.50;87.30;;;;;;5041005;28;20057;-50
2022/08/31 06:52:23;;;;;;;16.40;1.95;;;27.30;85.60;;;;;;5040316;28;20109;-52
2022/08/31 06:54:48;;;;;;;9.10;1.40;;;27.50;86.00;;;;;;5040561;28;20052;-50
2022/08/31 06:57:14;;;;;;;6.50;1.70;;;27.50;85.30;;;;;;5042019;28;20451;-50
2022/08/31 06:59:40;;;;;;;3.08;1.10;;;27.90;84.40;;;;;;5045175;28;20087;-50
2022/08/31 07:02:06;;;;;;;2.33;0.98;;;27.80;84.60;;;;;;5044386;28;20277;-50
2022/08/31 07:04:35;;;;;;;3.75;1.98;;;27.50;83.90;;;;;;5044963;28;20045;-49
2022/08/31 07:07:01;;;;;;;2.35;0.95;;;27.40;82.90;;;;;;5045452;28;20092;-50
2022/08/31 07:09:27;;;;;;;1.63;1.00;;;27.40;83.50;;;;;;5044717;28;20051;-49
2022/08/31 07:11:53;;;;;;;1.75;1.17;;;27.60;83.00;;;;;;5043851;28;20041;-54
2022/08/31 07:14:23;;;;;;;2.53;1.45;;;27.10;84.00;;;;;;5043603;28;20048;-50
2022/08/31 07:16:50;;;;;;;1.33;1.13;;;26.40;84.20;;;;;;5044545;28;20056;-51
2022/08/31 07:19:16;;;;;;;1.98;1.40;;;25.70;85.60;;;;;;5045315;28;20492;-54
2022/08/31 07:21:44;;;;;;;1.50;1.10;;;24.70;87.00;;;;;;5026773;28;20064;-54
2022/08/31 07:24:12;;;;;;;4.65;1.17;;;24.10;87.80;;;;;;5044692;28;20052;-52
2022/08/31 07:26:42;;;;;;;2.80;1.42;;;23.40;90.10;;;;;;5045266;28;20071;-50
2022/08/31 07:29:10;;;;;;;2.28;1.00;;;23.00;90.30;;;;;;5045776;28;20191;-51
2022/08/31 07:31:45;;;;;;;3.42;1.17;;;22.90;90.50;;;;;;5047425;28;20460;-54
2022/08/31 07:34:24;;;;;;;1.60;1.00;;;22.60;90.40;;;;;;5043866;28;20064;-54
2022/08/31 07:42:31;;;;;;;4.55;1.15;;;22.00;91.10;;;;;;5043753;28;20128;-53
2022/08/31 07:45:00;;;;;;;1.20;0.82;;;21.90;91.20;;;;;;5043730;28;20407;-54
2022/08/31 07:47:27;;;;;;;3.58;0.93;;;21.90;91.00;;;;;;5044192;28;20056;-53
2022/08/31 07:49:55;;;;;;;1.48;0.70;;;21.70;90.70;;;;;;5044087;28;20750;-55
2022/08/31 07:52:30;;;;;;;4.53;1.00;;;21.30;90.90;;;;;;5042118;28;20045;-55
2022/08/31 07:55:06;;;;;;;2.63;0.80;;;21.00;91.30;;;;;;5043004;28;20098;-53
2022/08/31 07:57:42;;;;;;;1.42;0.90;;;20.80;91.60;;;;;;5043539;28;20057;-52
2022/08/31 08:00:10;;;;;;;1.52;0.88;;;20.60;91.70;;;;;;5026268;28;20054;-54
2022/08/31 08:02:38;;;;;;;3.38;1.40;;;20.60;91.80;;;;;;5042906;28;20045;-55
2022/08/31 08:05:09;;;;;;;3.65;1.30;;;20.60;92.20;;;;;;5043189;28;20118;-54
2022/08/31 08:07:37;;;;;;;3.25;0.90;;;20.50;92.40;;;;;;5043664;28;20080;-52
2022/08/31 08:10:12;;;;;;;3.67;0.88;;;20.60;92.70;;;;;;5043422;28;20149;-53
2022/08/31 08:12:42;;;;;;;1.83;0.90;;;20.60;92.90;;;;;;5041959;28;20052;-56
2022/08/31 08:15:09;;;;;;;2.03;0.93;;;20.70;92.70;;;;;;5042764;28;20141;-55
2022/08/31 08:17:35;;;;;;;2.63;1.20;;;20.50;92.40;;;;;;5042746;28;20076;-55
2022/08/31 08:20:02;;;;;;;2.00;1.10;;;20.30;92.80;;;;;;5043174;28;20052;-55
2022/08/31 08:22:28;;;;;;;3.65;1.25;;;20.10;93.20;;;;;;5042521;28;20044;-54
2022/08/31 08:24:54;;;;;;;2.30;1.20;;;20.20;93.70;;;;;;5042502;28;20530;-57
2022/08/31 08:27:19;;;;;;;3.88;1.17;;;20.20;94.00;;;;;;5042168;28;20041;-55
2022/08/31 08:29:45;;;;;;;1.55;1.15;;;20.40;93.60;;;;;;5042057;28;20558;-55
2022/08/31 08:32:11;;;;;;;1.60;1.20;;;20.40;93.30;;;;;;5042033;28;20430;-57
2022/08/31 08:34:42;;;;;;;2.75;1.27;;;20.30;93.30;;;;;;5042613;28;20416;-54
2022/08/31 08:37:12;;;;;;;2.85;1.13;;;20.30;93.30;;;;;;5042775;28;20415;-56
2022/08/31 08:39:39;;;;;;;2.95;1.10;;;20.10;92.90;;;;;;5042482;28;20141;-55
2022/08/31 08:42:09;;;;;;;2.90;1.10;;;20.20;93.40;;;;;;5037938;28;20041;-55
2022/08/31 08:44:37;;;;;;;5.43;1.02;;;20.20;93.20;;;;;;5043638;28;20055;-54
2022/08/31 08:47:13;;;;;;;3.75;1.20;;;20.20;93.40;;;;;;5043768;28;20053;-55
2022/08/31 08:50:05;;;;;;;1.83;1.20;;;20.20;93.50;;;;;;5043710;28;20044;-56
2022/08/31 08:52:41;;;;;;;2.15;1.40;;;20.20;92.90;;;;;;5025201;28;20051;-56
2022/08/31 08:55:10;;;;;;;3.33;1.02;;;20.20;92.70;;;;;;5043899;28;20052;-56
2022/08/31 08:57:41;;;;;;;3.63;1.00;;;20.30;92.80;;;;;;5044674;28;20052;-56
2022/08/31 09:00:13;;;;;;;4.53;1.15;;;20.20;92.60;;;;;;5046349;28;20068;-56
2022/08/31 09:03:03;;;;;;;4.03;1.38;;;20.10;92.70;;;;;;5042073;28;20154;-58
2022/08/31 09:05:34;;;;;;;12.73;1.42;;;20.10;92.80;;;;;;5043276;28;20547;-58
2022/08/31 09:08:24;;;;;;;3.35;1.15;;;20.10;92.80;;;;;;5038053;28;20500;-58
2022/08/31 09:11:16;;;;;;;4.63;0.82;;;20.20;92.70;;;;;;5043614;28;20094;-57
2022/08/31 09:14:04;;;;;;;2.72;1.00;;;20.20;92.50;;;;;;5045495;28;20037;-57
2022/08/31 09:16:46;;;;;;;1.55;1.10;;;20.10;92.40;;;;;;5046196;28;20049;-57
2022/08/31 09:19:17;;;;;;;3.08;1.23;;;20.10;92.90;;;;;;5045561;28;20045;-55
2022/08/31 09:21:54;;;;;;;3.60;1.23;;;20.30;92.90;;;;;;5044691;28;20053;-56
2022/08/31 09:24:29;;;;;;;1.23;0.80;;;20.40;92.70;;;;;;5046211;28;20049;-57
2022/08/31 09:27:18;;;;;;;3.45;1.38;;;20.40;92.00;;;;;;5045535;28;20052;-58
2022/08/31 09:29:55;;;;;;;4.60;1.30;;;20.40;92.50;;;;;;5044747;28;20107;-56
2022/08/31 09:32:30;;;;;;;3.42;1.10;;;20.50;93.20;;;;;;5027160;28;20500;-57
2022/08/31 09:35:00;;;;;;;2.78;1.33;;;20.70;92.50;;;;;;5046210;28;20041;-57
2022/08/31 09:37:32;;;;;;;3.60;1.20;;;20.70;92.40;;;;;;5045924;28;20053;-57
2022/08/31 09:40:18;;;;;;;1.80;1.17;;;20.70;92.40;;;;;;5045880;28;20048;-57
2022/08/31 09:42:59;;;;;;;3.17;1.38;;;20.60;91.70;;;;;;5045102;28;20120;-56
2022/08/31 09:45:34;;;;;;;5.63;1.35;;;20.70;92.10;;;;;;5045161;28;20060;-57
2022/08/31 09:48:02;;;;;;;2.15;1.60;;;20.70;92.10;;;;;;5045233;28;20055;-57
2022/08/31 09:50:43;;;;;;;2.53;1.00;;;20.80;92.20;;;;;;5045130;28;20503;-58
2022/08/31 09:56:18;;;;;;;2.60;1.10;;;20.90;92.40;;;;;;5027059;28;20056;-58
2022/08/31 09:58:46;;;;;;;2.10;1.10;;;21.20;91.90;;;;;;5044832;28;20545;-57
2022/08/31 10:01:25;;;;;;;3.63;1.42;;;21.30;91.80;;;;;;5044980;28;20052;-58
2022/08/31 10:04:14;;;;;;;1.55;0.90;;;21.40;91.30;;;;;;5043518;28;20096;-57
2022/08/31 10:07:23;;;;;;;4.53;1.52;;;21.40;90.80;;;;;;5043889;28;20052;-56
2022/08/31 10:09:58;;;;;;;3.13;1.15;;;21.30;91.10;;;;;;5044498;28;20048;-58
2022/08/31 10:12:40;;;;;;;5.20;1.30;;;21.30;91.70;;;;;;5044694;28;20519;-57
2022/08/31 10:15:21;;;;;;;1.23;0.90;;;21.40;91.40;;;;;;5044792;28;20037;-57
2022/08/31 10:17:50;;;;;;;12.73;1.85;;;21.60;90.90;;;;;;5044940;28;20299;-57
2022/08/31 10:20:22;;;;;;;3.05;1.00;;;21.60;90.40;;;;;;5045114;28;20300;-57
2022/08/31 10:22:55;;;;;;;2.75;1.10;;;21.60;90.20;;;;;;5043673;28;20111;-57
2022/08/31 10:25:21;;;;;;;2.22;1.17;;;21.80;91.40;;;;;;5007650;28;20048;-57
2022/08/31 10:27:57;;;;;;;2.92;1.33;;;22.00;91.40;;;;;;5009251;28;20069;-58
2022/08/31 10:30:40;;;;;;;6.15;1.40;;;22.10;90.50;;;;;;5026443;28;20069;-58
2022/08/31 10:33:20;;;;;;;2.17;1.23;;;22.10;90.10;;;;;;4995371;28;20823;-57
2022/08/31 10:35:59;;;;;;;2.97;0.98;;;22.20;90.50;;;;;;5046139;28;20191;-59
2022/08/31 10:38:39;;;;;;;5.40;1.20;;;22.20;89.10;;;;;;5048185;28;20045;-58
2022/08/31 10:41:09;;;;;;;2.28;1.20;;;22.10;90.10;;;;;;5029940;28;20507;-58
2022/08/31 10:43:47;;;;;;;2.50;1.20;;;22.00;90.00;;;;;;5047433;28;20066;-57
2022/08/31 10:46:20;;;;;;;1.48;1.08;;;21.80;89.90;;;;;;5047195;28;20102;-56
2022/08/31 10:48:53;;;;;;;2.95;1.05;;;21.80;89.60;;;;;;5048895;28;20045;-56
2022/08/31 10:52:00;;;;;;;3.25;1.30;;;21.90;90.30;;;;;;5048897;28;20053;-56
2022/08/31 10:54:53;;;;;;;2.05;0.95;;;21.90;90.40;;;;;;5030751;28;20056;-57
2022/08/31 10:57:28;;;;;;;;;;;21.90;90.40;;;;;;5047993;28;20127;-57
2022/08/31 11:00:08;;;;;;;2.85;1.00;;;21.70;90.40;;;;;;5045666;28;20423;-55
2022/08/31 11:03:04;;;;;;;2.05;0.98;;;21.80;90.20;;;;;;5046979;28;20443;-56
2022/08/31 11:05:46;;;;;;;2.10;1.38;;;21.90;89.70;;;;;;5028740;28;20044;-57
2022/08/31 11:08:35;;;;;;;2.80;1.10;;;21.90;89.90;;;;;;5044672;28;20488;-57
2022/08/31 11:11:05;;;;;;;2.30;1.52;;;21.90;90.20;;;;;;5047891;28;20053;-57
2022/08/31 11:13:37;;;;;;;1.30;0.98;;;22.00;90.20;;;;;;5048243;28;20128;-57
2022/08/31 11:16:45;;;;;;;2.70;1.33;;;22.10;89.90;;;;;;5048289;28;20045;-57
2022/08/31 11:19:14;;;;;;;3.15;1.15;;;22.30;90.20;;;;;;5046167;28;20044;-57
2022/08/31 11:22:29;;;;;;;5.50;1.10;;;22.40;88.90;;;;;;5025111;28;20131;-57
2022/08/31 11:25:13;;;;;;;6.93;1.58;;;22.30;89.60;;;;;;4966058;28;20059;-57
2022/08/31 11:27:49;;;;;;;4.25;1.25;;;22.20;89.10;;;;;;4966040;28;20133;-57
2022/08/31 11:30:27;;;;;;;5.07;1.10;;;22.40;90.30;;;;;;4958542;28;20508;-59
2022/08/31 11:33:06;;;;;;;3.45;1.05;;;22.40;89.40;;;;;;4966258;28;20055;-57
2022/08/31 11:36:04;;;;;;;2.08;1.10;;;22.40;89.30;;;;;;4965950;28;20063;-58
2022/08/31 11:39:02;;;;;;;4.20;1.17;;;22.60;90.00;;;;;;4965409;28;20354;-58
2022/08/31 11:41:33;;;;;;;3.70;1.30;;;22.70;89.50;;;;;;4911035;29;20087;-58
2022/08/31 11:44:02;;;;;;;2.40;0.90;;;22.70;87.80;;;;;;4926366;29;20051;-58
2022/08/31 11:46:44;;;;;;;4.90;1.88;;;22.70;89.20;;;;;;4927433;29;20542;-58
2022/08/31 11:49:35;;;;;;;2.03;1.20;;;22.70;88.00;;;;;;4927454;29;20590;-58
2022/08/31 11:52:07;;;;;;;6.20;1.02;;;22.80;86.90;;;;;;4926959;29;20139;-57
2022/08/31 11:54:42;;;;;;;2.78;1.20;;;22.80;87.50;;;;;;4927348;29;20099;-57
2022/08/31 11:57:17;;;;;;;3.53;1.20;;;22.80;88.20;;;;;;4926464;29;20111;-57
2022/08/31 11:59:48;;;;;;;1.20;0.90;;;22.80;88.40;;;;;;4910759;29;20484;-58
2022/08/31 12:02:22;;;;;;;3.90;1.33;;;22.90;89.20;;;;;;4971707;28;20062;-58
2022/08/31 12:04:52;;;;;;;6.75;1.38;;;23.00;88.50;;;;;;4984407;28;20062;-58
2022/08/31 12:07:25;;;;;;;1.92;1.00;;;23.10;87.50;;;;;;4984719;28;20440;-59
2022/08/31 12:10:05;;;;;;;1.42;1.00;;;23.00;86.50;;;;;;4985912;28;20066;-58
2022/08/31 12:12:54;;;;;;;1.77;1.10;;;22.90;86.90;;;;;;4984648;28;20527;-57
2022/08/31 12:15:52;;;;;;;7.13;1.40;;;23.00;87.40;;;;;;4984448;28;20048;-57
2022/08/31 12:19:03;;;;;;;2.70;1.05;;;23.00;88.60;;;;;;5011904;28;20100;-57
2022/08/31 12:24:51;;;;;;;2.80;1.00;;;23.10;85.80;;;;;;4983792;28;20051;-57
2022/08/31 12:27:17;;;;;;;2.03;1.10;;;22.90;85.50;;;;;;4984576;28;20363;-57
2022/08/31 12:29:44;;;;;;;2.45;1.00;;;22.70;84.70;;;;;;4984620;28;20444;-58
2022/08/31 12:32:28;;;;;;;3.47;1.02;;;22.60;84.90;;;;;;4984499;28;20082;-57
2022/08/31 12:34:54;;;;;;;4.32;1.33;;;22.50;86.20;;;;;;4983352;28;20188;-57
2022/08/31 12:37:30;;;;;;;1.92;1.00;;;22.40;87.10;;;;;;4982884;28;20742;-57
2022/08/31 12:40:13;;;;;;;1.30;0.88;;;22.40;86.20;;;;;;4983516;28;20671;-55
2022/08/31 12:42:48;;;;;;;;;;;22.40;87.00;;;;;;4983793;28;20141;-57
2022/08/31 12:45:14;;;;;;;1.88;0.90;;;22.40;87.40;;;;;;4983531;28;19925;-57
2022/08/31 12:47:40;;;;;;;3.38;0.90;;;22.60;88.70;;;;;;4981818;28;20048;-57
2022/08/31 12:50:35;;;;;;;3.95;1.27;;;22.70;87.70;;;;;;4986350;28;20050;-56
2022/08/31 12:53:26;;;;;;;3.25;1.02;;;22.80;87.20;;;;;;4983545;28;20144;-58
2022/08/31 12:56:24;;;;;;;1.98;1.10;;;22.90;87.40;;;;;;4973243;28;20105;-57
2022/08/31 12:59:34;;;;;;;3.92;1.10;;;22.90;87.10;;;;;;5025687;28;20385;-57
2022/08/31 13:02:01;;;;;;;2.60;1.17;;;22.90;86.90;;;;;;5025853;28;20520;-57
2022/08/31 13:04:27;;;;;;;4.03;1.15;;;23.00;85.40;;;;;;5024942;28;20111;-57
2022/08/31 13:06:53;;;;;;;2.85;1.10;;;23.00;85.50;;;;;;5023986;28;20041;-58
2022/08/31 13:09:25;;;;;;;3.63;1.00;;;23.00;84.70;;;;;;5024208;28;20052;-57
2022/08/31 13:11:55;;;;;;;4.65;1.20;;;23.00;85.50;;;;;;5025855;28;20089;-57
2022/08/31 13:14:25;;;;;;;3.13;1.65;;;23.10;85.80;;;;;;5023743;28;20049;-58
2022/08/31 13:17:29;;;;;;;2.95;1.10;;;23.10;85.00;;;;;;5024821;28;20051;-58
2022/08/31 13:19:57;;;;;;;1.77;0.80;;;23.10;85.60;;;;;;4964163;28;20055;-57
2022/08/31 13:22:26;;;;;;;1.70;0.80;;;23.10;84.80;;;;;;4963990;28;20625;-59
2022/08/31 13:24:53;;;;;;;2.72;0.80;;;23.10;85.60;;;;;;4963634;28;20146;-57